createdAt,value
2019-05-29T00:00:46.773Z,73.95
2019-05-29T00:01:46.737Z,73.54
2019-05-29T00:02:47.526Z,74.05
2019-05-29T00:03:46.725Z,74.05
2019-05-29T00:04:46.711Z,73.95
2019-05-29T00:05:46.699Z,73.85
2019-05-29T00:06:47.335Z,73.95
2019-05-29T00:07:46.676Z,74.46
2019-05-29T00:08:46.794Z,74.36
2019-05-29T00:09:46.692Z,74.29
2019-05-29T00:10:46.774Z,74.39
2019-05-29T00:11:46.643Z,75.01
2019-05-29T00:12:46.627Z,75.21
2019-05-29T00:13:46.605Z,75.62
2019-05-29T00:14:46.635Z,75.62
2019-05-29T00:15:46.594Z,75.42
2019-05-29T00:16:46.590Z,75.52
2019-05-29T00:17:46.565Z,75.73
2019-05-29T00:18:46.562Z,75.42
2019-05-29T00:19:46.544Z,75.31
2019-05-29T00:20:46.597Z,74.70
2019-05-29T00:21:46.524Z,73.64
2019-05-29T00:22:46.523Z,73.85
2019-05-29T00:23:46.504Z,73.57
2019-05-29T00:24:46.505Z,73.57
2019-05-29T00:25:46.483Z,73.98
2019-05-29T00:26:46.511Z,74.70
2019-05-29T00:27:46.472Z,75.11
2019-05-29T00:28:46.461Z,75.21
2019-05-29T00:29:46.934Z,75.31
2019-05-29T00:30:46.433Z,75.31
2019-05-29T00:31:46.424Z,75.82
2019-05-29T00:32:46.454Z,75.52
2019-05-29T00:33:46.403Z,75.52
2019-05-29T00:34:46.393Z,75.42
2019-05-29T00:35:46.381Z,74.60
2019-05-29T00:36:46.373Z,74.39
2019-05-29T00:37:46.363Z,74.29
2019-05-29T00:38:46.419Z,74.29
2019-05-29T00:39:46.343Z,74.08
2019-05-29T00:40:46.341Z,74.05
2019-05-29T00:41:46.314Z,74.15
2019-05-29T00:42:46.303Z,74.05
2019-05-29T00:43:46.293Z,73.47
2019-05-29T00:44:46.331Z,74.08
2019-05-29T00:45:46.272Z,74.66
2019-05-29T00:46:46.270Z,74.49
2019-05-29T00:47:46.253Z,74.19
2019-05-29T00:48:46.251Z,74.39
2019-05-29T00:49:46.812Z,74.49
2019-05-29T00:50:46.272Z,75.11
2019-05-29T00:51:46.219Z,74.90
2019-05-29T00:52:46.202Z,75.11
2019-05-29T00:53:46.191Z,74.90
2019-05-29T00:54:46.872Z,74.80
2019-05-29T00:55:48.095Z,74.73
2019-05-29T00:56:46.673Z,74.94
2019-05-29T00:57:46.158Z,75.15
2019-05-29T00:58:46.142Z,75.35
2019-05-29T00:59:46.132Z,75.76
2019-05-29T01:00:46.160Z,75.86
2019-05-29T01:01:46.111Z,76.27
2019-05-29T01:02:46.157Z,76.48
2019-05-29T01:03:46.093Z,76.58
2019-05-29T01:04:46.080Z,76.37
2019-05-29T01:05:46.070Z,76.07
2019-05-29T01:06:46.081Z,75.96
2019-05-29T01:07:46.061Z,75.56
2019-05-29T01:08:46.104Z,75.66
2019-05-29T01:09:46.035Z,75.86
2019-05-29T01:10:46.032Z,76.07
2019-05-29T01:11:46.008Z,76.27
2019-05-29T01:12:45.999Z,76.37
2019-05-29T01:13:45.989Z,76.58
2019-05-29T01:14:50.177Z,77.20
2019-05-29T01:15:45.970Z,77.20
2019-05-29T01:16:46.076Z,77.40
2019-05-29T01:17:45.947Z,77.29
2019-05-29T01:18:45.937Z,77.71
2019-05-29T01:19:45.919Z,77.40
2019-05-29T01:20:45.946Z,77.74
2019-05-29T01:21:45.900Z,78.16
2019-05-29T01:22:45.891Z,78.36
2019-05-29T01:23:45.879Z,78.36
2019-05-29T01:24:45.876Z,78.60
2019-05-29T01:25:45.861Z,78.60
2019-05-29T01:26:45.889Z,78.60
2019-05-29T01:27:45.835Z,79.01
2019-05-29T01:28:45.828Z,79.08
2019-05-29T01:29:45.820Z,78.77
2019-05-29T01:30:45.809Z,78.36
2019-05-29T01:31:45.801Z,77.74
2019-05-29T01:32:46.619Z,77.84
2019-05-29T01:33:45.769Z,78.60
2019-05-29T01:34:45.769Z,79.32
2019-05-29T01:35:45.758Z,79.59
2019-05-29T01:36:45.740Z,79.49
2019-05-29T01:37:45.737Z,79.63
2019-05-29T01:38:45.765Z,79.83
2019-05-29T01:39:45.716Z,80.14
2019-05-29T01:40:45.698Z,80.35
2019-05-29T01:41:45.695Z,80.28
2019-05-29T01:42:45.689Z,80.69
2019-05-29T01:43:45.674Z,80.79
2019-05-29T01:44:45.711Z,80.73
2019-05-29T01:45:45.648Z,81.14
2019-05-29T01:46:45.637Z,81.24
2019-05-29T01:47:45.627Z,81.28
2019-05-29T01:48:45.617Z,81.59
2019-05-29T01:49:45.617Z,82.20
2019-05-29T01:50:45.678Z,82.47
2019-05-29T01:51:45.606Z,82.27
2019-05-29T01:52:45.730Z,82.17
2019-05-29T01:53:45.567Z,82.06
2019-05-29T01:54:45.556Z,81.86
2019-05-29T01:55:45.546Z,81.24
2019-05-29T01:56:45.588Z,81.41
2019-05-29T01:57:45.524Z,81.41
2019-05-29T01:58:45.514Z,81.41
2019-05-29T01:59:45.512Z,81.30
2019-05-29T02:02:25.830Z,81.00
2019-05-29T02:03:24.994Z,81.30
2019-05-29T02:04:24.977Z,81.30
2019-05-29T02:05:24.968Z,81.30
2019-05-29T02:06:24.960Z,81.20
2019-05-29T02:07:24.945Z,81.00
2019-05-29T02:08:25.292Z,80.79
2019-05-29T02:09:25.039Z,80.69
2019-05-29T02:10:24.909Z,80.58
2019-05-29T02:11:24.899Z,81.00
2019-05-29T02:12:24.889Z,81.00
2019-05-29T02:13:24.881Z,80.90
2019-05-29T02:14:24.981Z,81.20
2019-05-29T02:16:38.842Z,81.14
2019-05-29T02:17:38.688Z,81.45
2019-05-29T02:18:38.678Z,82.06
2019-05-29T02:19:38.670Z,82.17
2019-05-29T02:20:38.650Z,82.10
2019-05-29T02:21:38.638Z,82.00
2019-05-29T02:22:38.674Z,82.00
2019-05-29T02:23:38.630Z,82.10
2019-05-29T02:24:38.608Z,82.00
2019-05-29T02:25:38.607Z,82.45
2019-05-29T02:26:38.600Z,82.76
2019-05-29T02:27:38.577Z,82.65
2019-05-29T02:28:38.620Z,82.55
2019-05-29T02:29:38.556Z,82.76
2019-05-29T02:30:38.547Z,82.96
2019-05-29T02:31:38.540Z,82.76
2019-05-29T02:32:38.528Z,82.86
2019-05-29T02:33:38.518Z,82.86
2019-05-29T02:34:38.591Z,82.65
2019-05-29T02:35:38.501Z,82.86
2019-05-29T02:36:38.487Z,82.96
2019-05-29T02:37:38.477Z,82.86
2019-05-29T02:38:38.465Z,82.86
2019-05-29T02:39:38.457Z,82.65
2019-05-29T02:40:38.496Z,82.65
2019-05-29T02:41:38.435Z,82.65
2019-05-29T02:42:38.426Z,82.65
2019-05-29T02:43:38.413Z,83.06
2019-05-29T02:44:38.396Z,83.17
2019-05-29T02:45:53.812Z,82.76
2019-05-29T02:46:39.421Z,82.76
2019-05-29T02:47:38.371Z,82.96
2019-05-29T02:48:38.356Z,83.06
2019-05-29T02:49:39.015Z,82.96
2019-05-29T02:50:38.338Z,82.86
2019-05-29T02:51:38.334Z,83.06
2019-05-29T02:52:38.366Z,82.65
2019-05-29T02:53:38.313Z,82.55
2019-05-29T02:54:38.295Z,82.18
2019-05-29T02:55:38.285Z,82.39
2019-05-29T02:56:42.290Z,82.48
2019-05-29T02:57:39.104Z,82.93
2019-05-29T02:58:38.295Z,83.25
2019-05-29T02:59:38.243Z,83.97
2019-05-29T03:00:38.225Z,84.03
2019-05-29T03:01:38.223Z,83.92
2019-05-29T03:02:38.203Z,83.72
2019-05-29T03:03:39.699Z,83.41
2019-05-29T03:04:38.227Z,83.41
2019-05-29T03:05:38.176Z,83.41
2019-05-29T03:06:38.175Z,83.41
2019-05-29T03:07:38.153Z,83.20
2019-05-29T03:08:38.148Z,83.20
2019-05-29T03:09:38.164Z,82.96
2019-05-29T03:10:38.613Z,82.86
2019-05-29T03:11:38.106Z,82.55
2019-05-29T03:12:38.102Z,82.45
2019-05-29T03:13:38.084Z,82.55
2019-05-29T03:14:38.074Z,82.55
2019-05-29T03:15:38.078Z,82.96
2019-05-29T03:16:38.091Z,82.90
2019-05-29T03:17:38.044Z,82.90
2019-05-29T03:18:38.032Z,83.35
2019-05-29T03:19:38.064Z,84.17
2019-05-29T03:20:38.017Z,85.20
2019-05-29T03:21:38.006Z,85.55
2019-05-29T03:22:38.042Z,85.44
2019-05-29T03:23:38.003Z,85.44
2019-05-29T03:24:37.978Z,85.30
2019-05-29T03:25:37.958Z,85.30
2019-05-29T03:26:38.462Z,85.41
2019-05-29T03:27:38.520Z,84.79
2019-05-29T03:28:38.396Z,84.17
2019-05-29T03:29:38.527Z,83.76
2019-05-29T03:30:45.421Z,83.35
2019-05-29T03:31:46.607Z,83.25
2019-05-29T03:32:47.195Z,83.14
2019-05-29T03:33:47.736Z,83.14
2019-05-29T03:34:45.744Z,83.25
2019-05-29T03:35:47.114Z,83.35
2019-05-29T03:36:46.964Z,83.39
2019-05-29T03:37:38.985Z,83.49
2019-05-29T03:38:38.579Z,83.55
2019-05-29T03:39:38.600Z,83.45
2019-05-29T03:40:38.708Z,83.35
2019-05-29T03:41:39.012Z,83.04
2019-05-29T03:42:38.976Z,82.93
2019-05-29T03:43:38.807Z,82.73
2019-05-29T03:44:38.699Z,82.63
2019-05-29T03:45:38.749Z,82.73
2019-05-29T03:46:44.613Z,82.63
2019-05-29T03:47:38.719Z,82.53
2019-05-29T03:48:38.539Z,82.15
2019-05-29T03:49:37.704Z,82.46
2019-05-29T03:50:38.333Z,82.77
2019-05-29T03:51:38.989Z,82.87
2019-05-29T03:52:38.966Z,82.97
2019-05-29T03:53:38.510Z,82.87
2019-05-29T03:54:38.767Z,82.46
2019-05-29T03:55:38.038Z,82.77
2019-05-29T03:56:38.916Z,82.77
2019-05-29T03:57:38.301Z,82.56
2019-05-29T03:58:37.912Z,82.67
2019-05-29T03:59:37.647Z,83.07
2019-05-29T04:00:45.555Z,83.07
2019-05-29T04:01:38.571Z,82.97
2019-05-29T04:02:38.407Z,82.87
2019-05-29T04:03:38.301Z,83.07
2019-05-29T04:04:38.222Z,83.28
2019-05-29T04:05:38.025Z,83.25
2019-05-29T04:06:37.736Z,83.04
2019-05-29T04:07:38.321Z,82.83
2019-05-29T04:08:38.468Z,82.73
2019-05-29T04:09:37.539Z,82.77
2019-05-29T04:10:39.479Z,83.18
2019-05-29T04:11:38.092Z,83.59
2019-05-29T04:12:38.176Z,83.90
2019-05-29T04:13:38.847Z,84.17
2019-05-29T04:14:37.853Z,83.76
2019-05-29T04:15:38.579Z,83.45
2019-05-29T04:16:58.123Z,83.14
2019-05-29T04:17:38.394Z,83.14
2019-05-29T04:18:38.156Z,82.93
2019-05-29T04:19:38.654Z,82.69
2019-05-29T04:20:38.717Z,82.59
2019-05-29T04:21:38.613Z,82.28
2019-05-29T04:22:38.341Z,82.42
2019-05-29T04:23:38.295Z,82.53
2019-05-29T04:24:38.219Z,82.53
2019-05-29T04:25:41.972Z,82.93
2019-05-29T04:26:38.327Z,83.11
2019-05-29T04:27:38.435Z,83.00
2019-05-29T04:28:38.882Z,82.90
2019-05-29T04:29:38.425Z,82.90
2019-05-29T04:30:38.994Z,82.90
2019-05-29T04:31:38.401Z,83.00
2019-05-29T04:32:38.642Z,83.11
2019-05-29T04:33:38.805Z,82.90
2019-05-29T04:34:37.999Z,82.79
2019-05-29T04:35:39.533Z,82.90
2019-05-29T04:36:38.864Z,83.04
2019-05-29T04:37:39.433Z,83.70
2019-05-29T04:38:38.452Z,84.72
2019-05-29T04:39:38.939Z,84.62
2019-05-29T04:40:37.883Z,84.58
2019-05-29T04:41:37.710Z,84.79
2019-05-29T04:42:38.113Z,84.38
2019-05-29T04:43:37.568Z,84.07
2019-05-29T04:44:38.885Z,83.97
2019-05-29T04:45:39.270Z,84.07
2019-05-29T04:46:38.437Z,84.07
2019-05-29T04:47:37.437Z,84.17
2019-05-29T04:48:38.243Z,84.23
2019-05-29T04:49:37.970Z,84.03
2019-05-29T04:50:38.690Z,83.62
2019-05-29T04:51:37.405Z,83.72
2019-05-29T04:52:37.841Z,83.51
2019-05-29T04:53:37.786Z,83.62
2019-05-29T04:54:37.741Z,84.03
2019-05-29T04:55:37.075Z,83.92
2019-05-29T04:56:37.067Z,83.51
2019-05-29T04:57:37.268Z,83.31
2019-05-29T04:58:37.056Z,83.20
2019-05-29T04:59:37.165Z,83.27
2019-05-29T05:00:37.273Z,83.37
2019-05-29T05:01:37.189Z,83.06
2019-05-29T05:02:37.344Z,83.06
2019-05-29T05:03:37.223Z,83.27
2019-05-29T05:04:37.307Z,82.96
2019-05-29T05:05:37.613Z,83.06
2019-05-29T05:06:37.372Z,82.55
2019-05-29T05:07:37.429Z,82.45
2019-05-29T05:08:37.475Z,82.55
2019-05-29T05:09:37.569Z,82.65
2019-05-29T05:10:37.784Z,83.06
2019-05-29T05:11:37.596Z,83.48
2019-05-29T05:12:37.817Z,83.78
2019-05-29T05:13:37.709Z,83.58
2019-05-29T05:14:37.784Z,83.44
2019-05-29T05:15:37.875Z,83.44
2019-05-29T05:16:37.831Z,83.03
2019-05-29T05:17:37.933Z,82.82
2019-05-29T05:18:37.871Z,82.57
2019-05-29T05:19:37.991Z,82.31
2019-05-29T05:20:38.126Z,82.62
2019-05-29T05:21:36.702Z,82.57
2019-05-29T05:22:36.688Z,82.27
2019-05-29T05:23:36.678Z,81.76
2019-05-29T05:24:36.668Z,81.55
2019-05-29T05:25:36.668Z,81.45
2019-05-29T05:26:36.694Z,81.14
2019-05-29T05:27:36.638Z,81.20
2019-05-29T05:28:36.631Z,80.90
2019-05-29T05:29:36.699Z,80.79
2019-05-29T05:30:36.771Z,80.58
2019-05-29T05:31:36.587Z,80.79
2019-05-29T05:32:36.897Z,80.90
2019-05-29T05:33:37.073Z,81.10
2019-05-29T05:34:36.887Z,81.41
2019-05-29T05:35:36.808Z,81.51
2019-05-29T05:36:36.807Z,81.48
2019-05-29T05:37:36.984Z,80.96
2019-05-29T05:38:36.996Z,80.18
2019-05-29T05:39:37.336Z,80.28
2019-05-29T05:40:41.368Z,80.18
2019-05-29T05:41:37.618Z,80.79
2019-05-29T05:42:37.122Z,80.79
2019-05-29T05:43:36.917Z,80.24
2019-05-29T05:44:37.049Z,79.73
2019-05-29T05:45:37.097Z,79.38
2019-05-29T05:46:37.151Z,79.18
2019-05-29T05:47:50.196Z,78.53
2019-05-29T05:48:37.448Z,77.91
2019-05-29T05:49:37.314Z,77.71
2019-05-29T05:50:37.299Z,77.40
2019-05-29T05:51:39.683Z,77.29
2019-05-29T05:52:37.536Z,76.27
2019-05-29T05:53:37.466Z,76.48
2019-05-29T05:54:37.581Z,76.99
2019-05-29T05:55:37.696Z,77.09
2019-05-29T05:56:37.614Z,77.09
2019-05-29T05:57:37.636Z,76.82
2019-05-29T05:58:37.728Z,77.29
2019-05-29T05:59:36.295Z,77.20
2019-05-29T06:00:36.285Z,77.06
2019-05-29T06:01:36.353Z,76.81
2019-05-29T06:02:36.297Z,76.40
2019-05-29T06:03:36.255Z,75.99
2019-05-29T06:04:36.234Z,74.63
2019-05-29T06:05:36.408Z,74.22
2019-05-29T06:06:36.324Z,74.32
2019-05-29T06:07:36.219Z,74.02
2019-05-29T06:08:36.323Z,73.61
2019-05-29T06:09:36.218Z,74.77
2019-05-29T06:10:36.217Z,75.73
2019-05-29T06:11:36.214Z,75.62
2019-05-29T06:12:36.535Z,75.82
2019-05-29T06:13:36.340Z,75.93
2019-05-29T06:14:36.507Z,75.82
2019-05-29T06:15:36.484Z,75.73
2019-05-29T06:16:36.466Z,75.52
2019-05-29T06:17:36.567Z,75.31
2019-05-29T06:18:36.539Z,75.07
2019-05-29T06:19:36.740Z,74.87
2019-05-29T06:20:36.754Z,74.56
2019-05-29T06:21:36.713Z,74.36
2019-05-29T06:22:36.899Z,74.11
2019-05-29T06:23:36.945Z,73.30
2019-05-29T06:24:37.177Z,73.27
2019-05-29T06:25:36.974Z,73.16
2019-05-29T06:26:36.780Z,72.86
2019-05-29T06:27:37.103Z,72.72
2019-05-29T06:28:37.076Z,73.06
2019-05-29T06:29:37.126Z,73.27
2019-05-29T06:30:36.668Z,73.16
2019-05-29T06:31:37.165Z,73.06
2019-05-29T06:32:37.271Z,73.03
2019-05-29T06:33:35.930Z,73.03
2019-05-29T06:34:35.928Z,73.20
2019-05-29T06:35:35.979Z,72.89
2019-05-29T06:36:37.904Z,71.63
2019-05-29T06:37:35.889Z,71.63
2019-05-29T06:38:35.921Z,70.81
2019-05-29T06:39:35.916Z,70.30
2019-05-29T06:40:36.414Z,70.61
2019-05-29T06:41:35.840Z,70.27
2019-05-29T06:42:35.831Z,69.96
2019-05-29T06:43:35.845Z,69.89
2019-05-29T06:44:39.247Z,70.51
2019-05-29T06:45:35.890Z,70.51
2019-05-29T06:46:36.148Z,69.89
2019-05-29T06:47:36.437Z,69.15
2019-05-29T06:48:44.827Z,69.04
2019-05-29T06:49:38.000Z,68.63
2019-05-29T06:50:37.326Z,68.43
2019-05-29T06:51:35.776Z,68.33
2019-05-29T06:52:35.736Z,68.50
2019-05-29T06:53:35.832Z,68.50
2019-05-29T06:54:35.807Z,68.06
2019-05-29T06:55:35.893Z,67.65
2019-05-29T06:56:35.729Z,67.45
2019-05-29T06:57:36.160Z,67.04
2019-05-29T06:58:35.947Z,67.04
2019-05-29T06:59:36.117Z,67.48
2019-05-29T07:00:37.359Z,67.99
2019-05-29T07:01:37.313Z,67.35
2019-05-29T07:02:36.368Z,66.77
2019-05-29T07:03:35.698Z,67.41
2019-05-29T07:04:36.238Z,68.05
2019-05-29T07:05:35.654Z,68.57
2019-05-29T07:06:36.531Z,68.66
2019-05-29T07:07:36.027Z,68.77
2019-05-29T07:08:40.077Z,68.77
2019-05-29T07:09:36.853Z,68.74
2019-05-29T07:10:36.351Z,68.02
2019-05-29T07:11:35.518Z,68.33
2019-05-29T07:12:36.271Z,67.89
2019-05-29T07:13:37.717Z,67.55
2019-05-29T07:14:36.490Z,67.14
2019-05-29T07:15:36.487Z,65.99
2019-05-29T07:16:45.313Z,66.30
2019-05-29T07:17:36.464Z,66.16
2019-05-29T07:18:36.573Z,66.06
2019-05-29T07:19:48.977Z,65.31
2019-05-29T07:20:36.566Z,65.83
2019-05-29T07:21:36.883Z,65.36
2019-05-29T07:22:37.019Z,63.01
2019-05-29T07:23:50.256Z,63.12
2019-05-29T07:24:38.772Z,63.32
2019-05-29T07:25:36.866Z,63.49
2019-05-29T07:26:38.792Z,62.04
2019-05-29T07:27:36.710Z,60.89
2019-05-29T07:28:36.826Z,60.15
2019-05-29T07:29:35.347Z,60.43
2019-05-29T07:30:35.328Z,60.20
2019-05-29T07:31:35.363Z,59.36
2019-05-29T07:32:35.346Z,58.72
2019-05-29T07:33:35.490Z,57.78
2019-05-29T07:34:51.361Z,57.17
2019-05-29T07:35:37.191Z,56.23
2019-05-29T07:36:35.505Z,55.70
2019-05-29T07:37:37.537Z,56.34
2019-05-29T07:38:35.248Z,56.10
2019-05-29T07:39:35.215Z,56.44
2019-05-29T07:40:35.943Z,56.46
2019-05-29T07:41:35.199Z,56.46
2019-05-29T07:42:35.235Z,58.11
2019-05-29T07:43:35.242Z,55.55
2019-05-29T07:44:38.046Z,54.99
2019-05-29T07:45:35.332Z,55.12
2019-05-29T07:46:35.175Z,53.80
2019-05-29T07:47:35.925Z,53.30
2019-05-29T07:48:36.002Z,52.92
2019-05-29T07:49:39.069Z,52.13
2019-05-29T07:50:38.020Z,52.41
2019-05-29T07:51:35.099Z,51.37
2019-05-29T07:52:35.479Z,51.42
2019-05-29T07:53:36.355Z,51.57
2019-05-29T07:54:36.559Z,50.84
2019-05-29T07:55:38.309Z,49.78
2019-05-29T07:56:38.994Z,49.15
2019-05-29T07:57:36.963Z,49.05
2019-05-29T07:58:35.975Z,47.94
2019-05-29T07:59:35.374Z,48.85
2019-05-29T08:00:55.664Z,48.82
2019-05-29T08:01:38.674Z,47.59
2019-05-29T08:02:35.425Z,47.36
2019-05-29T08:03:35.456Z,47.74
2019-05-29T08:04:34.964Z,47.02
2019-05-29T08:05:34.946Z,46.77
2019-05-29T08:06:35.191Z,46.06
2019-05-29T08:07:37.313Z,45.84
2019-05-29T08:08:36.829Z,45.14
2019-05-29T08:09:35.911Z,45.01
2019-05-29T08:10:35.526Z,44.51
2019-05-29T08:11:35.767Z,43.88
2019-05-29T08:12:35.399Z,44.19
2019-05-29T08:13:35.433Z,43.91
2019-05-29T08:14:35.665Z,43.60
2019-05-29T08:15:49.142Z,43.91
2019-05-29T08:16:36.287Z,43.59
2019-05-29T08:17:35.846Z,42.86
2019-05-29T08:18:35.281Z,41.67
2019-05-29T08:19:35.624Z,42.54
2019-05-29T08:20:34.826Z,43.99
2019-05-29T08:21:34.776Z,44.49
2019-05-29T08:22:35.093Z,45.81
2019-05-29T08:23:34.747Z,45.78
2019-05-29T08:24:35.488Z,45.03
2019-05-29T08:25:34.807Z,44.92
2019-05-29T08:26:35.640Z,43.46
2019-05-29T08:27:37.162Z,43.32
2019-05-29T08:28:36.547Z,42.40
2019-05-29T08:29:36.178Z,41.27
2019-05-29T08:30:35.345Z,41.69
2019-05-29T08:31:36.474Z,42.10
2019-05-29T08:32:34.809Z,42.10
2019-05-29T08:33:34.970Z,41.91
2019-05-29T08:34:34.650Z,43.14
2019-05-29T08:35:36.083Z,43.44
2019-05-29T08:36:34.853Z,42.49
2019-05-29T08:37:35.748Z,40.67
2019-05-29T08:38:35.754Z,40.37
2019-05-29T08:39:37.040Z,41.71
2019-05-29T08:40:37.481Z,42.01
2019-05-29T08:41:34.876Z,40.67
2019-05-29T08:42:34.555Z,39.83
2019-05-29T08:43:34.700Z,39.40
2019-05-29T08:44:35.386Z,38.49
2019-05-29T08:45:34.984Z,37.95
2019-05-29T08:46:34.557Z,36.83
2019-05-29T08:47:35.014Z,37.08
2019-05-29T08:48:35.573Z,38.53
2019-05-29T08:49:36.258Z,38.44
2019-05-29T08:50:35.917Z,39.45
2019-05-29T08:51:34.875Z,38.32
2019-05-29T08:52:36.550Z,37.50
2019-05-29T08:53:35.199Z,37.48
2019-05-29T08:54:34.435Z,37.12
2019-05-29T08:55:35.215Z,38.49
2019-05-29T08:56:34.456Z,39.82
2019-05-29T08:57:34.399Z,40.34
2019-05-29T08:58:37.212Z,39.92
2019-05-29T08:59:34.864Z,39.94
2019-05-29T09:00:34.592Z,41.03
2019-05-29T09:01:34.425Z,39.38
2019-05-29T09:02:35.805Z,38.62
2019-05-29T09:03:34.335Z,37.18
2019-05-29T09:04:36.070Z,37.50
2019-05-29T09:05:34.314Z,38.98
2019-05-29T09:06:35.458Z,39.08
2019-05-29T09:07:35.766Z,38.54
2019-05-29T09:08:34.279Z,38.53
2019-05-29T09:09:34.271Z,37.60
2019-05-29T09:10:35.036Z,38.54
2019-05-29T09:11:34.435Z,39.78
2019-05-29T09:12:34.247Z,37.80
2019-05-29T09:13:34.335Z,37.27
2019-05-29T09:14:35.272Z,36.41
2019-05-29T09:15:35.051Z,35.69
2019-05-29T09:16:34.810Z,35.48
2019-05-29T09:17:37.058Z,35.56
2019-05-29T09:18:34.180Z,35.24
2019-05-29T09:19:34.215Z,35.18
2019-05-29T09:21:00.036Z,34.89
2019-05-29T09:21:35.162Z,34.78
2019-05-29T09:22:34.544Z,34.44
2019-05-29T09:23:34.702Z,34.28
2019-05-29T09:24:34.108Z,34.81
2019-05-29T09:25:34.192Z,35.94
2019-05-29T09:26:34.133Z,36.46
2019-05-29T09:27:34.114Z,38.32
2019-05-29T09:28:34.080Z,38.72
2019-05-29T09:29:34.066Z,38.40
2019-05-29T09:30:35.277Z,39.06
2019-05-29T09:31:34.391Z,40.97
2019-05-29T09:32:50.616Z,42.86
2019-05-29T09:33:37.673Z,43.80
2019-05-29T09:34:35.549Z,44.98
2019-05-29T09:35:35.003Z,45.94
2019-05-29T09:36:34.479Z,47.15
2019-05-29T09:37:35.211Z,45.28
2019-05-29T09:38:34.196Z,42.11
2019-05-29T09:39:35.067Z,39.03
2019-05-29T09:40:34.656Z,37.85
2019-05-29T09:41:34.948Z,36.19
2019-05-29T09:42:33.944Z,35.60
2019-05-29T09:43:34.770Z,35.39
2019-05-29T09:44:39.248Z,35.78
2019-05-29T09:45:35.234Z,35.73
2019-05-29T09:46:34.143Z,37.27
2019-05-29T09:47:35.206Z,36.83
2019-05-29T09:48:48.879Z,35.80
2019-05-29T09:49:36.041Z,35.68
2019-05-29T09:50:49.568Z,35.14
2019-05-29T09:51:34.828Z,34.00
2019-05-29T09:52:33.807Z,33.80
2019-05-29T09:53:35.056Z,33.56
2019-05-29T09:54:33.920Z,32.34
2019-05-29T09:55:33.822Z,32.53
2019-05-29T09:56:33.758Z,31.99
2019-05-29T09:57:33.781Z,31.57
2019-05-29T09:58:33.757Z,30.96
2019-05-29T09:59:34.469Z,30.08
2019-05-29T10:00:33.717Z,31.23
2019-05-29T10:01:33.788Z,33.40
2019-05-29T10:02:33.689Z,32.37
2019-05-29T10:03:33.697Z,32.50
2019-05-29T10:04:33.705Z,31.99
2019-05-29T10:05:33.694Z,31.54
2019-05-29T10:06:33.707Z,29.81
2019-05-29T10:07:33.684Z,30.33
2019-05-29T10:08:33.638Z,30.65
2019-05-29T10:09:33.701Z,32.47
2019-05-29T10:10:34.089Z,32.27
2019-05-29T10:11:34.017Z,32.57
2019-05-29T10:12:33.646Z,31.73
2019-05-29T10:13:33.648Z,30.70
2019-05-29T10:14:33.720Z,31.54
2019-05-29T10:15:33.946Z,32.06
2019-05-29T10:16:35.043Z,31.51
2019-05-29T10:17:33.588Z,31.10
2019-05-29T10:18:33.557Z,31.57
2019-05-29T10:19:33.723Z,30.53
2019-05-29T10:20:36.304Z,29.72
2019-05-29T10:21:40.597Z,29.34
2019-05-29T10:22:34.528Z,29.03
2019-05-29T10:23:33.510Z,28.36
2019-05-29T10:24:33.662Z,29.17
2019-05-29T10:25:34.180Z,29.69
2019-05-29T10:26:34.434Z,29.39
2019-05-29T10:27:34.264Z,28.90
2019-05-29T10:28:50.287Z,29.00
2019-05-29T10:29:39.404Z,30.42
2019-05-29T10:30:34.659Z,30.19
2019-05-29T10:31:34.691Z,29.24
2019-05-29T10:32:34.469Z,27.91
2019-05-29T10:33:33.763Z,27.21
2019-05-29T10:34:34.262Z,27.75
2019-05-29T10:35:34.477Z,28.64
2019-05-29T10:36:33.990Z,28.22
2019-05-29T10:37:34.297Z,28.32
2019-05-29T10:38:34.048Z,27.60
2019-05-29T10:39:34.509Z,26.90
2019-05-29T10:40:33.943Z,26.57
2019-05-29T10:41:34.400Z,26.35
2019-05-29T10:42:34.524Z,26.24
2019-05-29T10:43:34.887Z,25.72
2019-05-29T10:44:33.820Z,26.57
2019-05-29T10:45:34.729Z,28.97
2019-05-29T10:46:33.673Z,31.37
2019-05-29T10:47:34.171Z,33.56
2019-05-29T10:48:36.602Z,35.11
2019-05-29T10:49:34.313Z,37.18
2019-05-29T10:50:33.891Z,38.36
2019-05-29T10:51:33.184Z,39.98
2019-05-29T10:52:33.865Z,39.80
2019-05-29T10:53:33.171Z,40.95
2019-05-29T10:54:33.180Z,41.25
2019-05-29T10:55:33.216Z,40.14
2019-05-29T10:56:33.154Z,40.62
2019-05-29T10:57:35.246Z,41.03
2019-05-29T10:58:47.938Z,40.53
2019-05-29T10:59:34.613Z,40.33
2019-05-29T11:00:38.009Z,40.42
2019-05-29T11:01:34.960Z,40.42
2019-05-29T11:02:34.513Z,39.74
2019-05-29T11:03:34.444Z,40.18
2019-05-29T11:04:36.288Z,41.02
2019-05-29T11:05:33.032Z,41.55
2019-05-29T11:06:33.775Z,41.47
2019-05-29T11:07:36.189Z,42.09
2019-05-29T11:08:34.264Z,43.12
2019-05-29T11:09:44.105Z,43.24
2019-05-29T11:10:35.359Z,44.15
2019-05-29T11:11:34.780Z,43.95
2019-05-29T11:12:33.332Z,43.32
2019-05-29T11:13:33.792Z,42.24
2019-05-29T11:14:34.311Z,37.84
2019-05-29T11:15:33.482Z,35.61
2019-05-29T11:16:33.660Z,33.42
2019-05-29T11:17:33.308Z,30.96
2019-05-29T11:18:34.325Z,29.94
2019-05-29T11:19:34.285Z,29.74
2019-05-29T11:20:33.305Z,30.13
2019-05-29T11:21:32.853Z,30.36
2019-05-29T11:22:34.444Z,30.38
2019-05-29T11:23:33.490Z,30.13
2019-05-29T11:24:36.852Z,28.79
2019-05-29T11:25:35.612Z,27.78
2019-05-29T11:26:34.913Z,29.04
2019-05-29T11:27:36.120Z,30.59
2019-05-29T11:28:40.672Z,31.06
2019-05-29T11:29:40.391Z,29.81
2019-05-29T11:30:32.754Z,28.67
2019-05-29T11:31:32.814Z,27.94
2019-05-29T11:32:32.762Z,28.34
2019-05-29T11:33:32.736Z,28.77
2019-05-29T11:34:33.591Z,29.47
2019-05-29T11:35:33.454Z,27.74
2019-05-29T11:36:34.498Z,27.98
2019-05-29T11:37:36.990Z,28.35
2019-05-29T11:38:36.432Z,28.56
2019-05-29T11:39:34.663Z,29.30
2019-05-29T11:40:38.550Z,29.41
2019-05-29T11:41:35.354Z,31.06
2019-05-29T11:42:33.574Z,32.00
2019-05-29T11:43:35.259Z,32.76
2019-05-29T11:44:32.631Z,33.91
2019-05-29T11:45:35.504Z,34.63
2019-05-29T11:46:33.121Z,32.35
2019-05-29T11:47:33.024Z,31.39
2019-05-29T11:48:32.641Z,29.33
2019-05-29T11:49:33.255Z,28.41
2019-05-29T11:50:32.819Z,27.88
2019-05-29T11:51:33.354Z,27.97
2019-05-29T11:52:42.787Z,27.53
2019-05-29T11:53:33.542Z,26.40
2019-05-29T11:54:32.505Z,25.91
2019-05-29T11:55:32.630Z,29.28
2019-05-29T11:56:32.489Z,29.21
2019-05-29T11:57:33.192Z,29.54
2019-05-29T11:58:33.475Z,30.51
2019-05-29T11:59:33.187Z,32.68
2019-05-29T12:00:33.261Z,33.73
2019-05-29T12:01:49.008Z,35.28
2019-05-29T12:02:34.054Z,36.10
2019-05-29T12:03:33.870Z,36.61
2019-05-29T12:04:33.566Z,36.83
2019-05-29T12:05:32.876Z,37.44
2019-05-29T12:06:38.067Z,36.83
2019-05-29T12:07:34.208Z,35.63
2019-05-29T12:08:32.900Z,35.33
2019-05-29T12:09:34.259Z,35.33
2019-05-29T12:10:33.266Z,34.63
2019-05-29T12:11:34.436Z,34.12
2019-05-29T12:12:33.973Z,32.20
2019-05-29T12:13:33.196Z,29.30
2019-05-29T12:14:33.367Z,27.85
2019-05-29T12:15:32.708Z,27.62
2019-05-29T12:16:32.294Z,27.40
2019-05-29T12:17:32.277Z,27.59
2019-05-29T12:18:32.436Z,27.68
2019-05-29T12:19:32.546Z,26.29
2019-05-29T12:20:32.325Z,26.70
2019-05-29T12:21:32.975Z,27.41
2019-05-29T12:22:32.230Z,28.76
2019-05-29T12:23:35.535Z,27.31
2019-05-29T12:24:35.412Z,26.18
2019-05-29T12:25:32.269Z,24.76
2019-05-29T12:26:32.194Z,24.45
2019-05-29T12:27:35.445Z,25.91
2019-05-29T12:28:32.177Z,26.20
2019-05-29T12:29:32.581Z,25.56
2019-05-29T12:30:35.763Z,25.77
2019-05-29T12:31:35.977Z,25.25
2019-05-29T12:32:32.693Z,24.82
2019-05-29T12:33:34.487Z,25.14
2019-05-29T12:34:33.054Z,25.95
2019-05-29T12:35:32.159Z,24.61
2019-05-29T12:36:32.092Z,23.48
2019-05-29T12:37:32.717Z,22.36
2019-05-29T12:38:33.281Z,22.45
2019-05-29T12:39:35.075Z,22.48
2019-05-29T12:40:32.643Z,23.51
2019-05-29T12:41:34.025Z,24.55
2019-05-29T12:42:32.038Z,25.08
2019-05-29T12:43:32.056Z,25.16
2019-05-29T12:44:32.041Z,25.08
2019-05-29T12:45:32.861Z,25.48
2019-05-29T12:46:32.818Z,25.48
2019-05-29T12:47:32.092Z,25.08
2019-05-29T12:48:32.302Z,25.38
2019-05-29T12:49:32.919Z,25.45
2019-05-29T12:50:34.521Z,25.14
2019-05-29T12:51:32.317Z,24.51
2019-05-29T12:52:32.655Z,24.58
2019-05-29T12:53:31.907Z,24.61
2019-05-29T12:54:31.896Z,26.28
2019-05-29T12:55:31.940Z,28.76